Salt Creek Water Quality Studies
Physical/Chemical Data for in situ Site ISH
  Lab Results (Nearest Hour) HydroLab Data Port. Meter Data (Nearest Hr.) Est. HPCC Data [2]  
  Total Un-Ionized Total Water Water     Water       Total Air    
  NH3-N NH3-N Chlorides Temp Temp   Cond. Temp   Cond. D.O. Flow Temp Precip.  
Date/Time mg/l mg/l mg/l C F pH umhos/cm C pH umhos/cm mg/l cfs [1] F in. Comments
09/21/1999 12:00 6.91 0.0613 1,425 13.91 57 7.55 4,553         134 61   [1]  Estimated flow is same as for
09/21/1999 13:00       14.70 58 7.95   15.60 7.80 5,450 4.41 138 63   Site ISG.
09/21/1999 14:00       17.10 63 7.69 5,586         140 65    
09/21/1999 15:00       18.43 65 7.70 5,682         141 67   [2]  High Plains Climate Center
09/21/1999 16:00 5.05 0.1039 1,671 19.49 67 7.74 5,839         143 69   data for Station A254699
09/21/1999 17:00       20.28 69 7.78 5,830         140 69   located at 82nd & Havelock Ave.
09/21/1999 18:00       20.52 69 7.79 5,614         140 66    
09/21/1999 19:00       20.06 68 7.71 5,313         142 58    
09/21/1999 20:00 6.48 0.1134 1,440 19.74 68 7.66 5,214         141 53    
09/21/1999 21:00       19.42 67 7.64 5,218         139 48    
09/21/1999 22:00       18.93 66 7.63 5,211         140 47    
09/21/1999 23:00       18.35 65 7.62 5,184         138 45    
09/22/1999 00:00 6.70 0.0911 1,460 17.82 64 7.61 5,148         140 44    
09/22/1999 01:00       17.31 63 7.60 5,102         140 43    
09/22/1999 02:00       16.80 62 7.58 5,118         140 42    
09/22/1999 03:00       16.33 61 7.58 5,165         138 43    
09/22/1999 04:00 7.52 0.0827 1,425 15.87 61 7.58 5,205         135 46    
09/22/1999 05:00       15.40 60 7.58 5,288         133 48    
09/22/1999 06:00       14.96 59 7.58 5,390         129 47    
09/22/1999 07:00       14.55 58 7.57 5,391         125 46    
09/22/1999 08:00 8.11 0.0768 1,435 14.18 58 7.57 5,387         118 53    
09/22/1999 09:00       14.00 57 7.57 5,408         123 59    
09/22/1999 10:00       14.03 57 7.58 5,412         126 65    
09/22/1999 11:00       14.54 58 7.60 5,419         126 72    
09/22/1999 12:00 8.05 0.0938 1,555 15.73 60 7.61 5,360         131 75    
09/22/1999 13:00       17.32 63 7.65 5,347         140 78    
09/22/1999 14:00       18.80 66 7.68 5,441         147 80    
09/22/1999 15:00       20.14 68 7.70 5,552         148 81    
09/22/1999 16:00 5.15 0.1197 1,696 21.18 70 7.74 5,689         145 81    
09/22/1999 17:00       21.81 71 7.87 5,820 22.00 7.86 5,790 5.13 143 80    
09/22/1999 18:00       21.99 72 7.81 5,500         142 78    
09/22/1999 19:00       21.57 71 7.76 5,149         142 72    
09/22/1999 20:00 6.87 0.1344 1,409 21.29 70 7.66 5,086         141 70    
09/22/1999 21:00       21.03 70 7.64 5,143         140 69    
09/22/1999 22:00       20.59 69 7.63 5,254         140 67    
09/22/1999 23:00       20.04 68 7.62 5,276         140 65    
09/23/1999 00:00 6.17 0.0975 1,510 19.57 67 7.62 5,167         140 64    
09/23/1999 01:00       19.08 66 7.61 5,115         143 63    
09/23/1999 02:00       18.68 66 7.60 5,117         151 62    
09/23/1999 03:00       18.29 65 7.59 5,134         155 61    
09/23/1999 04:00 6.00 0.0782 1,561 17.87 64 7.59 5,182         158 60    
09/23/1999 05:00       17.44 63 7.58 5,269         163 58    
09/23/1999 06:00       17.01 63 7.57 5,287         161 57    
09/23/1999 07:00       16.63 62 7.56 5,262         160 57    
09/23/1999 08:00 5.10 0.0552 1,626 16.28 61 7.56 5,291         160 59    
09/23/1999 09:00       16.03 61 7.57 4,924         161 64    
09/23/1999 10:00       15.96 61 7.59 4,616         163 68    
09/23/1999 11:00       16.28 61 7.61 4,490         170 72    
09/23/1999 12:00 3.66 0.0508 1,279 17.19 63 7.64 4,683 17.20 7.66 4,750 7.25 175 77    
09/23/1999 13:00       18.25 65 7.66 4,627         181 80    
09/23/1999 14:00       19.49 67 7.69 4,672         180 84    
09/23/1999 15:00       20.73 69 7.74 4,738         182 85    
09/23/1999 16:00 2.62 0.0713 1,329 21.84 71 7.79 4,684         182 87    
09/23/1999 17:00       22.71 73 7.84 4,407         180 86    
09/23/1999 18:00       23.11 74 7.81 4,087         182 84    
09/23/1999 19:00       22.86 73 7.72 3,965         185 76    
09/23/1999 20:00 3.94 0.0884 1,112 22.62 73 7.68 3,975         187 68    
09/23/1999 21:00       22.31 72 7.66 4,005         198 61    
09/23/1999 22:00       21.88 71 7.64 4,020         205 57    
09/23/1999 23:00       21.40 71 7.53 3,986         212 54    
09/24/1999 00:00 4.87 0.0677 1,082 20.94 70 7.52 3,923         221 53    
09/24/1999 01:00       20.54 69 7.52 3,867         226 55    
09/24/1999 02:00       20.13 68 7.51 3,769         230 54    
09/24/1999 03:00       19.64 67 7.52 3,598         229 53    
09/24/1999 04:00 4.93 0.0600 956 19.10 66 7.52 3,419         227 52    
09/24/1999 05:00       18.53 65 7.52 3,319         227 50    
09/24/1999 06:00       17.97 64 7.51 3,230         224 49    
09/24/1999 07:00       17.42 63 7.51 3,150         220 48    
09/24/1999 08:00 5.10 0.0518 866 16.95 63 7.51 3,094         218 54    
09/24/1999 09:00       16.57 62 7.53 3,056         220 62    
09/24/1999 10:00       16.43 62 7.54 3,050         224 68    
09/24/1999 11:00       16.66 62 7.58 3,044 17.00 7.65 3,560 6.82 227 73    
09/24/1999 12:00 3.74 0.0481 876 17.39 63 7.60 3,005         231 77    
09/24/1999 13:00       18.32 65 7.62 2,981         237 80    
09/24/1999 14:00       19.42 67 7.64 2,952         238 84    
09/24/1999 15:00       20.55 69 7.66 2,947         236 87    
09/24/1999 16:00 3.13 0.0700 846 21.59 71 7.71 2,917         236 89    
09/24/1999 17:00       22.45 72 7.69 2,849         235 89    
09/24/1999 18:00       22.86 73 7.67 2,785         235 87    
09/24/1999 19:00       22.70 73 7.62 2,748         227 76    
09/24/1999 20:00 4.27 0.0783 820 22.61 73 7.59 2,723         233 68    
09/24/1999 21:00       22.42 72 7.57 2,707         234 67    
09/24/1999 22:00       22.10 72 7.56 2,714         231 74    
09/24/1999 23:00       21.76 71 7.55 2,728         234 74    
09/25/1999 00:00 4.59 0.0691 831 21.42 71 7.54 2,729         231 73    
09/25/1999 01:00       21.10 70 7.43 2,744         231 71   HydroLab Data Download
09/25/1999 02:00                       228 69   Power Loss on Hydrolab
09/25/1999 03:00                       228 68    
09/25/1999 04:00 5.10   831                 223 68    
09/25/1999 05:00                       221 67    
09/25/1999 06:00                       219 66    
09/25/1999 07:00                       215 65    
09/25/1999 08:00 4.69   886                 211 66    
09/25/1999 09:00                       209 69    
09/25/1999 10:00                       212 74    
09/25/1999 11:00               18.40 7.70 3,540 6.35 211 77    
09/25/1999 12:00 4.06 0.0707 881                 209 80    
09/25/1999 13:00                       210 82    
09/25/1999 14:00                       214 84    
09/25/1999 15:00                       214 84    
09/25/1999 16:00 3.05   866                 212 84    
09/25/1999 17:00                       208 82    
09/25/1999 18:00                       206 79    
09/25/1999 19:00               22.90 7.78 3,580   202 75    
09/25/1999 20:00 4.34 0.0937 896 22.38 72 7.67 3,547         201 72    
09/25/1999 21:00       22.11 72 7.66 3,584         199 71    
09/25/1999 22:00       21.66 71 7.64 3,621         195 69    
09/25/1999 23:00       21.17 70 7.64 3,704         191 67    
09/26/1999 00:00 4.71 0.0843 1,475 20.67 69 7.64 3,735         189 65    
09/26/1999 01:00       20.27 68 7.64 3,816         185 64    
09/26/1999 02:00       19.89 68 7.64 3,861         183 64    
09/26/1999 03:00       19.56 67 7.64 3,914         185 64    
09/26/1999 04:00 4.34 0.0688 1,017 19.30 67 7.63 3,969         183 64    
09/26/1999 05:00       19.05 66 7.63 4,000         179 64    
09/26/1999 06:00       18.84 66 7.62 4,050         173 64    
09/26/1999 07:00       18.71 66 7.62 4,069         172 63    
09/26/1999 08:00 3.67 0.0524 1,097 18.51 65 7.61 4,156         165 63    
09/26/1999 09:00       18.39 65 7.61 4,167         162 64    
09/26/1999 10:00       18.34 65 7.63 4,246 18.50 7.71 4,370 6.70 161 65    
09/26/1999 11:00       18.40 65 7.65 4,344         164 65    
09/26/1999 12:00 2.67 0.0425 1,260 18.42 65 7.66 4,430         167 67    
09/26/1999 13:00       18.95 66 7.68 4,490         170 72    
09/26/1999 14:00       19.78 68 7.69 4,427         173 69    
09/26/1999 15:00       20.23 68 7.69 4,376         177 69    
09/26/1999 16:00 2.63 0.0528 1,230 20.38 69 7.70 4,338         176 70    
09/26/1999 17:00       20.47 69 7.70 4,332         177 69    
09/26/1999 18:00       20.32 69 7.68 4,375         178 66    
09/26/1999 19:00       20.02 68 7.67 4,328         178 63    
09/26/1999 20:00 2.71 0.0462 1,180 19.72 67 7.65 4,254         178 61    
09/26/1999 21:00       19.43 67 7.63 4,097         178 60    
09/26/1999 22:00       19.11 66 7.62 4,131         178 58    
09/26/1999 23:00       18.76 66 7.62 4,101         179 57    
09/27/1999 00:00 3.65 0.0520 1,095 18.46 65 7.61 4,079         185 56    
09/27/1999 01:00       18.18 65 7.61 4,061         185 56    
09/27/1999 02:00       17.93 64 7.61 4,046         185 54    
09/27/1999 03:00       17.66 64 7.62 3,968         187 53    
09/27/1999 04:00 4.24 0.0559 1,095 17.39 63 7.61 4,010         185 52    
09/27/1999 05:00       17.14 63 7.59 3,981         175 52    
09/27/1999 06:00       16.92 62 7.59 3,944         169 52    
09/27/1999 07:00       16.72 62 7.58 3,960         165 51    
09/27/1999 08:00 3.84 0.0445 1,125 16.29 61 7.59 4,093         168 52    
09/27/1999 09:00       16.03 61 7.59 4,096         171 55    
09/27/1999 10:00       16.01 61 7.60 4,150 16.20 7.63 4,220 6.55 164 58    
09/27/1999 11:00       16.07 61 7.60 4,216         166 62    
09/27/1999 12:00 3.01 0.0369 1,120 16.69 62 7.60 4,152         171 64    
09/27/1999 13:00       17.51 64 7.62 4,134         178 66    
09/27/1999 14:00       18.34 65 7.64 4,193         184 67    
09/27/1999 15:00       19.08 66 7.64 4,220         186 66    
09/27/1999 16:00 2.40 0.0412 1,175 19.81 68 7.65 4,225         186 64    
09/27/1999 17:00       19.59 67 7.63 4,153         184 63    
09/27/1999 18:00       19.48 67 7.60 3,994         183 62    
09/27/1999 19:00       19.40 67 7.57 3,895         179 60    
09/27/1999 20:00 3.95 0.0517 1,065 19.17 67 7.55 3,864         184 58    
09/27/1999 21:00       18.88 66 7.54 3,875         179 58    
09/27/1999 22:00       18.52 65 7.55 3,935         177 56    
09/27/1999 23:00       18.05 64 7.56 3,960         184 54    
09/28/1999 00:00 4.54 0.0547 1,105 17.72 64 7.56 3,950         184 52 0.039  
09/28/1999 01:00       17.40 63 7.58 3,979         184 51 0.039  
09/28/1999 02:00       17.11 63 7.58 3,986         186 51    
09/28/1999 03:00       16.85 62 7.58 4,033         188 51    
09/28/1999 04:00 5.38 0.0624 1,125 16.57 62 7.58 4,084         187 50    
09/28/1999 05:00       16.32 61 7.57 4,066         186 50    
09/28/1999 06:00       16.10 61 7.56 4,058         190 50    
09/28/1999 07:00       15.89 61 7.55 4,053         193 50    
09/28/1999 08:00 6.31 0.0639 1,125 15.67 60 7.55 4,070         194 50    
09/28/1999 09:00       15.52 60 7.53 4,063         194 52    
09/28/1999 10:00       15.49 60 7.55 4,075 15.60 7.69 4,350 6.38 186 55    
09/28/1999 11:00       15.57 60 7.55 4,120         188 58    
09/28/1999 12:00 4.18 0.0420 1,170 15.88 61 7.54 4,252         189 61    
09/28/1999 13:00       16.35 61 7.55 4,020         193 64    
09/28/1999 14:00       16.97 63 7.54 3,871         195 65    
09/28/1999 15:00       17.83 64 7.56 3,812         192 65    
09/28/1999 16:00 3.52 0.0427 1,030 18.15 65 7.55 3,839         192 64    
09/28/1999 17:00       18.03 64 7.54 3,830         192 64    
09/28/1999 18:00       17.89 64 7.54 3,785         184 62    
09/28/1999 19:00       17.87 64 7.53 3,710         184 58    
09/28/1999 20:00 5.37 0.0589 990 17.70 64 7.52 3,695         182 54    
09/28/1999 21:00       17.33 63 7.52 3,699         186 54    
09/28/1999 22:00       16.96 63 7.52 3,758         186 55    
09/28/1999 23:00       16.54 62 7.52 3,849         182 53    
09/29/1999 00:00 5.75 0.0563 1,010 16.15 61 7.52 3,864         184 51    
09/29/1999 01:00       15.75 60 7.53 3,934         181 50    
09/29/1999 02:00       15.39 60 7.54 3,962         184 47    
09/29/1999 03:00       15.07 59 7.54 4,023         186 43    
09/29/1999 04:00 6.20 0.0572 1,050 14.74 59 7.54 4,035         180 40    
09/29/1999 05:00       14.39 58 7.54 4,042         179 39    
09/29/1999 06:00       14.03 57 7.53 4,055         172 39    
09/29/1999 07:00       13.63 57 7.52 4,057         169 37    
09/29/1999 08:00 6.52 0.0513 1,065 13.24 56 7.52 4,032         163 45    
09/29/1999 09:00       13.00 55 7.39 4,038         166 50    
09/29/1999 10:00       12.90 55 7.41 4,094 13.10 7.67 4,290 4.31 171 56    
09/29/1999 11:00       13.05 55 7.41 4,112         168 59    
09/29/1999 12:00 4.74 0.0312 1,120 13.89 57 7.42 3,996         177 61    
09/29/1999 13:00       14.89 59 7.42 4,020         181 63    
09/29/1999 14:00       15.97 61 7.44 4,010         185 65    
09/29/1999 15:00       17.10 63 7.48 4,030         186 66    
09/29/1999 16:00 3.54 0.0380 1,080 18.02 64 7.50 4,008 18.20 7.72 4,160   180 66    
09/29/1999 17:00       18.69 66 7.53 3,953         184 66    
09/29/1999 18:00       18.85 66 7.51 3,810         181 64    
09/29/1999 19:00       18.49 65 7.48 3,723         180 58    
09/29/1999 20:00 5.41 0.0541 980 18.30 65 7.46 3,748         176 55    
09/29/1999 21:00       17.99 64 7.47 3,781         178 55    
09/29/1999 22:00       17.56 64 7.46 3,814         175 55    
09/29/1999 23:00       17.09 63 7.45 3,864         181 54    
09/30/1999 00:00 4.68 0.0426 1,035 16.68 62 7.47 3,913         176 53    
09/30/1999 01:00       16.27 61 7.44 3,935         177 52    
09/30/1999 02:00       15.96 61 7.46 3,928         179 52    
09/30/1999 03:00       15.64 60 7.42 3,934         183 52    
09/30/1999 04:00 4.39 0.0335 1,075 15.27 59 7.44 3,933         180 51    
09/30/1999 05:00       14.88 59 7.44 3,919         175 51    
09/30/1999 06:00       14.51 58 7.40 3,951         172 50    
09/30/1999 07:00       14.16 57 7.41 3,976         166 48    
09/30/1999 08:00 4.31 0.0264 1,055 13.87 57 7.39 3,970         160 50    
09/30/1999 09:00       13.65 57 7.40 3,983         167 53    
09/30/1999 10:00       13.48 56 7.39 4,113         164 56    
09/30/1999 11:00       13.60 56 7.38 4,152 13.90 7.54 4,140 7.20 168 65    
09/30/1999 12:00 3.50 0.0238 1,135 14.34 58 7.42 4,169         172 70    
09/30/1999 13:00       15.32 60 7.43 4,231         177 71    
09/30/1999 14:00       16.39 62 7.48 4,221         177 73    
09/30/1999 15:00       17.40 63 7.49 4,227         182 74    
09/30/1999 16:00 2.64 0.0289 1,145 18.31 65 7.50 4,251         179 74    
09/30/1999 17:00       18.98 66 7.50 4,169         181 73    
09/30/1999 18:00       19.12 66 7.49 3,996         179 69    
09/30/1999 19:00       18.84 66 7.47 3,869         177 62    
09/30/1999 20:00 3.94 0.0396 1,025 18.65 66 7.45 3,864         179 56    
09/30/1999 21:00       18.36 65 7.44 3,866         181 53    
09/30/1999 22:00       17.92 64 7.43 3,893         180 50    
09/30/1999 23:00       17.37 63 7.43 3,939         178 45    
10/01/1999 00:00 4.45 0.0391 1,055 16.85 62 7.45 3,945         176 41    
10/01/1999 01:00       16.42 62 7.43 3,922         176 39    
10/01/1999 02:00       16.03 61 7.42 3,900         171 38    
10/01/1999 03:00       15.64 60 7.43 3,975         171 37    
10/01/1999 04:00 5.10 0.0369 1,075 15.17 59 7.42 4,087         163 36    
10/01/1999 05:00       14.73 59 7.41 4,138         154 36    
10/01/1999 06:00       14.29 58 7.41 4,215         149 36    
10/01/1999 07:00       13.65 57 7.41 4,404         141 37    
10/01/1999 08:00 5.73 0.0319 1,250 13.20 56 7.37 4,499         142 46    
10/01/1999 09:00       13.03 55 7.38 4,556         136 53    
10/01/1999 10:00       12.96 55 7.36 4,695 13.20 7.59 5,030 6.94 140 58    
10/01/1999 11:00       13.21 56 7.39 4,846         140 63    
10/01/1999 12:00 5.48 0.0356 1,315 14.01 57 7.41 4,902         143 67    
10/01/1999 13:00       15.07 59 7.41 4,965         148 70    
10/01/1999 14:00       16.15 61 7.45 5,074         152 74    
10/01/1999 15:00       17.09 63 7.47 5,191         159 77    
10/01/1999 16:00 4.28 0.0437 1,450 17.96 64 7.48 5,310         161 77    
10/01/1999 17:00       18.46 65 7.48 5,327         159 75    
10/01/1999 18:00       18.52 65 7.46 5,264         152 67    
10/01/1999 19:00       18.15 65 7.44 5,168         151 56    
10/01/1999 20:00 6.07 0.0562 1,350 17.55 64 7.45 4,967         147 47    
10/01/1999 21:00       16.75 62 7.42 4,871         145 43    
10/01/1999 22:00       16.10 61 7.42 4,927         147 40    
10/01/1999 23:00       15.46 60 7.42 5,029         145 39    
10/02/1999 00:00 6.83 0.0474 1,417 14.91 59 7.41 5,122         142 38    
10/02/1999 01:00       14.27 58 7.41 5,255         147 37    
10/02/1999 02:00       13.76 57 7.43 5,309         143 37    
10/02/1999 03:00       13.21 56 7.42 5,342         144 37    
10/02/1999 04:00 6.93 0.0397 1,537 12.67 55 7.40 5,388         145 36    
10/02/1999 05:00       12.24 54 7.39 5,389         136 36    
10/02/1999 06:00       11.77 53 7.35 5,362         134 36    
10/02/1999 07:00       11.39 53 7.33 5,347         130 36    
10/02/1999 08:00 7.37 0.0323 1,512 10.98 52 7.34 5,394         126 36    
10/02/1999 09:00       10.73 51 7.29 5,435         128 38    
10/02/1999 10:00       10.63 51 7.26 5,510         128 41   HydroLab Data Download
10/02/1999 11:00       10.82 51 7.84 5,746 11.00 7.63 5,760 7.26 127 45    
10/02/1999 12:00 6.06 0.0551 1,600 11.24 52 7.65 5,830         127 48    
10/02/1999 13:00       12.09 54 7.65 5,867         131 51    
10/02/1999 14:00       13.46 56 7.68 5,798         139 53    
10/02/1999 15:00       14.66 58 7.70 5,772         143 54    
10/02/1999 16:00 5.01 0.0789 1,624 15.52 60 7.75 5,773         148 54    
10/02/1999 17:00       15.81 60 7.75 5,813         146 53    
10/02/1999 18:00       15.65 60 7.77 5,790         146 51    
10/02/1999 19:00       15.29 60 7.76 5,636         146 49    
10/02/1999 20:00 5.32 0.0835 1,475 15.17 59 7.76 5,416         146 46    
10/02/1999 21:00       15.06 59 7.72 5,193         139 45    
10/02/1999 22:00       14.79 59 7.73 5,083         137 43    
10/02/1999 23:00       14.37 58 7.70 5,039         140 42    
10/03/1999 00:00 6.52 0.0796 1,360 13.91 57 7.69 5,071         136 44    
10/03/1999 01:00       13.47 56 7.70 5,115         133 44    
10/03/1999 02:00       13.09 56 7.67 5,207         134 44    
10/03/1999 03:00       12.71 55 7.66 5,291         128 43    
10/03/1999 04:00 6.02 0.0614 1,510 12.44 54 7.66 5,429         128 43    
10/03/1999 05:00       12.10 54 7.67 5,475         120 43    
10/03/1999 06:00       11.77 53 7.65 5,530         121 42    
10/03/1999 07:00       11.52 53 7.64 5,596         119 42    
10/03/1999 08:00 5.67 0.0492 1,605 11.22 52 7.63 5,644         115 42    
10/03/1999 09:00       10.98 52 7.62 5,791         116 39 0.039  
10/03/1999 10:00       10.80 51 7.70 5,885 10.90 7.75 5,970 6.82 114 40    
10/03/1999 11:00       10.81 51 7.58 5,947         116 41    
10/03/1999 12:00 5.25 0.0451 1,674 10.81 51 7.64 5,993         119 42    
10/03/1999 13:00       11.02 52 7.55 6,026         122 44    
10/03/1999 14:00       11.61 53 7.61 6,064         126 47    
10/03/1999 15:00       12.21 54 7.64 6,132         133 50    
10/03/1999 16:00 4.38 0.0478 1,709 13.02 55 7.67 6,204         142 51    
10/03/1999 17:00       13.71 57 7.70 6,325         143 51    
10/03/1999 18:00       13.59 56 7.69 6,357         146 48    
10/03/1999 19:00       13.04 55 7.69 6,343         143 43    
10/03/1999 20:00 4.52 0.0452 1,639 12.80 55 7.64 6,116         143 37    
10/03/1999 21:00       12.65 55 7.67 5,851         139 35    
10/03/1999 22:00       12.53 55 7.66 5,554         141 33    
10/03/1999 23:00       12.30 54 7.61 5,395         137 35    
10/04/1999 00:00 6.10 0.0525 1,455 12.04 54 7.60 5,372         139 33    
10/04/1999 01:00       11.75 53 7.61 5,366         140 31    
10/04/1999 02:00       11.47 53 7.61 5,379         140 31    
10/04/1999 03:00       11.14 52 7.59 5,437         134 29    
10/04/1999 04:00 6.24 0.0437 1,460 10.82 51 7.55 5,440         132 28    
10/04/1999 05:00       10.48 51 7.54 5,533         130 28    
10/04/1999 06:00       10.07 50 7.57 5,610         124 29    
10/04/1999 07:00       9.72 49 7.55 5,641         118 33    
10/04/1999 08:00 5.54 0.0340 1,490 9.42 49 7.54 5,665         117 38    
10/04/1999 09:00       9.28 49 7.48 5,653         117 43    
10/04/1999 10:00       9.33 49 7.49 5,648 9.60 7.72 5,420 7.29 120 48    
10/04/1999 11:00       9.78 50 7.45 5,666         123 52    
10/04/1999 12:00 5.44 0.0371 1,629 10.77 51 7.54 5,696         128 56    
10/04/1999 13:00       12.20 54 7.56 5,712         136 59    
10/04/1999 14:00       13.67 57 7.65 5,855         141 62    
10/04/1999 15:00       14.81 59 7.67 6,065         146 64    
10/04/1999 16:00 4.22 0.0629 1,809 15.68 60 7.72 6,211         146 64    
10/04/1999 17:00       16.12 61 7.74 6,256         141 64    
10/04/1999 18:00       16.07 61 7.74 6,011         141 61    
10/04/1999 19:00       15.71 60 7.72 5,648         139 57    
10/04/1999 20:00 5.64 0.0854 1,475 15.60 60 7.73 5,357         137 52    
10/04/1999 21:00       15.47 60 7.70 5,247         135 50    
10/04/1999 22:00       15.09 59 7.70 5,268         133 52    
10/04/1999 23:00       14.62 58 7.69 5,319         135 52    
10/05/1999 00:00 6.48 0.0756 1,530 14.22 58 7.66 5,373         137 51    
10/05/1999 01:00       13.84 57 7.66 5,419         135 50    
10/05/1999 02:00       13.52 56 7.66 5,428         137 50    
10/05/1999 03:00       13.25 56 7.66 5,495         135 50    
10/05/1999 04:00 7.57 0.0784 1,580 12.95 55 7.65 5,561         134 49    
10/05/1999 05:00       12.58 55 7.64 5,623         130 49    
10/05/1999 06:00       12.14 54 7.65 5,762         121 49    
10/05/1999 07:00       11.72 53 7.60 5,776         119 46    
10/05/1999 08:00 8.88 0.0713 1,585 11.42 53 7.59 5,752         116 48    
10/05/1999 09:00       11.24 52 7.55 5,707         118 53    
10/05/1999 10:00       11.29 52 7.62 5,724 11.40 7.67 5,680 6.57 120 59    
10/05/1999 11:00       11.70 53 7.51 5,791         118 67    
10/05/1999 12:00 7.85 0.0666 1,689 12.73 55 7.57 5,768         125 72    
10/05/1999 13:00       14.19 58 7.58 5,809         137 74    
10/05/1999 14:00       15.68 60 7.64 5,961         140 76    
10/05/1999 15:00       16.87 62 7.69 6,066         142 77    
10/05/1999 16:00 5.24 0.0911 1,804 17.77 64 7.72 6,202         140 77    
10/05/1999 17:00       18.34 65 7.75 6,209         139 76    
10/05/1999 18:00       18.42 65 7.74 5,952         138 71    
10/05/1999 19:00       18.10 65 7.73 5,580         136 62    
10/05/1999 20:00 7.02 0.1181 1,515 17.94 64 7.70 5,385         137 53    
10/05/1999 21:00       17.65 64 7.70 5,379         135 50    
10/05/1999 22:00       17.18 63 7.69 5,404         135 45    
10/05/1999 23:00       16.66 62 7.68 5,483         135 43    
10/06/1999 00:00 6.82 0.0939 1,575 16.13 61 7.67 5,548         133 42    
10/06/1999 01:00       15.56 60 7.66 5,517         135 40    
10/06/1999 02:00       15.13 59 7.65 5,495         132 41    
10/06/1999 03:00       14.68 58 7.68 5,553         133 38    
10/06/1999 04:00 7.35 0.0899 1,649 14.25 58 7.68 5,649         131 37    
10/06/1999 05:00       13.74 57 7.63 5,766         128 38    
10/06/1999 06:00       13.26 56 7.68 5,821         124 45    
10/06/1999 07:00       12.89 55 7.69 5,790         117 47    
10/06/1999 08:00 8.19 0.0829 1,649 12.65 55 7.65 5,601         116 50    
10/06/1999 09:00       12.52 55 7.62 5,633         118 55    
10/06/1999 10:00       12.56 55 7.57 5,724 12.70 7.77 5,410 6.47 120 62    
10/06/1999 11:00       13.01 55 7.58 5,745         120 69    
10/06/1999 12:00 7.80 0.0766 1,557 14.06 57 7.59 5,692         127 73    
10/06/1999 13:00       15.43 60 7.65 5,764         136 76    
10/06/1999 14:00       16.72 62 7.69 5,938         142 77    
10/06/1999 15:00       17.79 64 7.74 6,078         141 78    
10/06/1999 16:00 5.21 0.1103 1,707 18.63 66 7.78 6,142         143 77    
10/06/1999 17:00       19.02 66 7.77 6,128         139 75    
10/06/1999 18:00       19.07 66 7.77 5,929         136 73    
10/06/1999 19:00       18.84 66 7.74 5,558         133 70    
10/06/1999 20:00 7.07 0.1291 1,441 18.76 66 7.71 5,362         130 68    
10/06/1999 21:00       18.62 66 7.71 5,378         132 67    
10/06/1999 22:00       18.35 65 7.72 5,515         130 66    
10/06/1999 23:00       18.04 64 7.70 5,589         132 68    
10/07/1999 00:00 6.07 0.1007 1,532 17.76 64 7.70 5,591         135 69    
10/07/1999 01:00       17.44 63 7.72 5,573         137 68    
10/07/1999 02:00       17.18 63 7.72 5,602         134 66    
10/07/1999 03:00       16.92 62 7.72 5,653         133 65    
10/07/1999 04:00 5.89 0.0943 1,558 16.64 62 7.72 5,661         132 63    
10/07/1999 05:00       16.29 61 7.71 5,710         126 61    
10/07/1999 06:00       15.93 61 7.68 5,743         124 60    
10/07/1999 07:00       15.56 60 7.67 5,686         118 60    
10/07/1999 08:00 5.71 0.0770 1,544 15.25 59 7.69 5,623         113 62    
10/07/1999 09:00       15.01 59 7.68 5,666         116 66    
10/07/1999 10:00       14.88 59 7.67 5,844 15.00 7.70 5,450 6.08 117 71    
10/07/1999 11:00       15.11 59 7.65 5,894         121 75    
10/07/1999 12:00 5.12 0.0676 1,603 15.89 61 7.66 5,864         125 78    
10/07/1999 13:00       17.09 63 7.71 5,929         134 79    
10/07/1999 14:00       17.93 64 7.76 6,100         137 81    
10/07/1999 15:00       18.92 66 7.79 6,239         140 81    
10/07/1999 16:00 3.98 0.1011 1,745 19.58 67 7.83 6,292         134 80    
10/07/1999 17:00       19.69 67 7.83 6,234         131 79    
10/07/1999 18:00       19.67 67 7.81 5,942         133 75    
10/07/1999 19:00       19.48 67 7.77 5,626         131 71    
10/07/1999 20:00 5.16 0.1100 1,478 19.33 67 7.76 5,445         131 71    
10/07/1999 21:00       19.14 66 7.76 5,441         129 70    
10/07/1999 22:00       18.85 66 7.74 5,547         129 68    
10/07/1999 23:00       18.54 65 7.73 5,614         126 66    
10/08/1999 00:00 5.53 0.1043 1,506 18.28 65 7.74 5,578         126 64    
10/08/1999 01:00       17.98 64 7.72 5,551         132 61    
10/08/1999 02:00       17.74 64 7.68 5,618         133 59    
10/08/1999 03:00       17.51 64 7.71 5,693         133 55    
10/08/1999 04:00 6.94 0.1083 1,556 17.22 63 7.69 5,711         133 53    
10/08/1999 05:00       16.99 63 7.70 5,785         133 54    
10/08/1999 06:00       16.87 62 7.63 5,728         119 54    
10/08/1999 07:00       16.73 62 7.66 5,648         117 56    
10/08/1999 08:00 8.90 0.1217 1,545 16.67 62 7.65 5,616         113 60    
10/08/1999 09:00       16.52 62 7.65 5,792         114 61    
10/08/1999 10:00       16.59 62 7.64 5,859         118 64    
10/08/1999 11:00       16.91 62 7.64 6,043 17.00 7.79 5,800 6.29 121 68    
10/08/1999 12:00 8.24 0.1390 1,719 17.67 64 7.71 6,052         124 70    
10/08/1999 13:00       18.57 65 7.74 6,119         126 73    
10/08/1999 14:00       19.62 67 7.74 6,250         131 75    
10/08/1999 15:00       20.61 69 7.80 6,396         131 76    
10/08/1999 16:00 5.71 0.1632 1,839 21.26 70 7.83 6,500         129 75    
10/08/1999 17:00       21.31 70 7.82 6,522         129 74    
10/08/1999 18:00       20.98 70 7.91 6,324         129 70    
10/08/1999 19:00       20.62 69 7.81 6,130         131 63    
10/08/1999 20:00 7.29 0.1709 1,664 20.35 69 7.77 5,887         128 57    
10/08/1999 21:00       19.93 68 7.76 5,776         126 52    
10/08/1999 22:00       19.43 67 7.75 5,778         129 51    
10/08/1999 23:00       18.88 66 7.73 5,744         129 49    
10/09/1999 00:00 7.68 0.1393 1,610 18.36 65 7.72 5,766         131 48    
10/09/1999 01:00       17.84 64 7.71 5,836         124 48    
10/09/1999 02:00       17.38 63 7.70 5,878         131 47    
10/09/1999 03:00       16.95 63 7.71 5,920         131 45    
10/09/1999 04:00 8.20 0.1272 1,674 16.53 62 7.71 5,906         126 43    
10/09/1999 05:00       16.15 61 7.69 5,814         126 42    
10/09/1999 06:00       15.81 60 7.68 5,745         126 45    
10/09/1999 07:00       15.50 60 7.63 5,736         116 45    
10/09/1999 08:00 9.12 0.1044 1,639 15.20 59 7.62 5,837         115 51    
10/09/1999 09:00       15.03 59 7.68 5,962 15.30 7.71 6,100 2.61 114 61   HydroLab Data Download
10/09/1999 10:00       14.95 59 7.63 6,148         115 66    
10/09/1999 11:00       15.19 59 7.62 6,291         118 72    
10/09/1999 12:00 6.93 0.0969 1,782 16.05 61 7.68 6,306         119 76    
10/09/1999 13:00       17.29 63 7.70 6,310         121 78    
10/09/1999 14:00       18.84 66 7.74 6,222         124 79    
10/09/1999 15:00       20.01 68 7.77 6,356         131 80    
10/09/1999 16:00 5.33 0.1417 1,843 20.86 70 7.81 6,463         135 80    
10/09/1999 17:00       21.37 70 7.80 6,533         134 79    
10/09/1999 18:00       21.19 70 7.76 6,477         132 75    
10/09/1999 19:00       20.69 69 7.76 6,432         132 69    
10/09/1999 20:00 5.49 0.1320 1,770 20.39 69 7.78 6,298         134 67    
10/09/1999 21:00       20.04 68 7.76 6,014         132 66    
10/09/1999 22:00       19.55 67 7.75 5,801         132 65    
10/09/1999 23:00       19.06 66 7.73 5,749         133 65    
10/10/1999 00:00 6.39 0.1170 1,594 18.50 65 7.72 5,727         132 58    
10/10/1999 01:00       17.95 64 7.69 5,711         131 59    
10/10/1999 02:00       17.55 64 7.69 5,655         126 53    
10/10/1999 03:00       17.18 63 7.67 5,575         132 51    
10/10/1999 04:00 6.68 0.0904 1,580 16.83 62 7.64 5,495         129 50    
10/10/1999 05:00       16.51 62 7.62 5,469         129 51    
10/10/1999 06:00       16.17 61 7.60 5,500         122 53    
10/10/1999 07:00       15.85 61 7.58 5,575         119 54    
10/10/1999 08:00 5.63 0.0591 1,619 15.54 60 7.57 5,653         112 56    
10/10/1999 09:00       15.28 60 7.58 5,708 15.40 7.72 5,650 5.81 111 59    
10/10/1999 10:00       15.09 59 7.61 5,900         110 63    
10/10/1999 11:00       15.02 59 7.62 6,163         109 67    
10/10/1999 12:00 4.70 0.0621 1,674 15.60 60 7.67 6,296         112 70    
10/10/1999 13:00       16.57 62 7.71 6,349         112 72    
10/10/1999 14:00       17.81 64 7.75 6,370         117 73    
10/10/1999 15:00       18.93 66 7.79 6,361         123 73    
10/10/1999 16:00 4.56 0.1164 1,784 19.67 67 7.83 6,479         131 73    
10/10/1999 17:00       19.94 68 7.85 6,625         132 72    
10/10/1999 18:00       19.58 67 7.81 6,681         130 68    
10/10/1999 19:00       18.98 66 7.79 6,641         132 62    
10/10/1999 20:00 4.18 0.0884 1,809 18.61 65 7.78 6,446         132 57    
10/10/1999 21:00       18.32 65 7.76 6,056         136 54    
10/10/1999 22:00       17.90 64 7.73 5,827         131 51    
10/10/1999 23:00       17.37 63 7.71 5,778         132 48    
10/11/1999 00:00 5.67 0.0861 1,614 16.85 62 7.69 5,767         131 45    
10/11/1999 01:00       16.34 61 7.70 5,777         129 43    
10/11/1999 02:00       15.89 61 7.67 5,774         132 43    
10/11/1999 03:00       15.45 60 7.66 5,832         129 42    
10/11/1999 04:00 2.85 0.0353 1,560 15.05 59 7.66 5,814         126 40    
10/11/1999 05:00       14.67 58 7.65 5,736         122 40    
10/11/1999 06:00       14.31 58 7.59 5,752         125 39    
10/11/1999 07:00       13.96 57 7.59 5,765         115 39    
10/11/1999 08:00 2.91 0.0259 1,565 13.63 57 7.56 5,745         108 44    
10/11/1999 09:00       13.43 56 7.53 5,733         109 55    
10/11/1999 10:00       13.24 56 7.55 5,954 13.50 7.70 5,550 6.62 110 63    
10/11/1999 11:00       13.45 56 7.54 6,032         114 66    
10/11/1999 12:00 5.36 0.0524 1,698 14.32 58 7.58 5,926         123 69    
10/11/1999 13:00       15.65 60 7.65 5,877         131 71    
10/11/1999 14:00       16.82 62 7.71 6,219         129 74    
10/11/1999 15:00       17.95 64 7.76 6,348         132 76    
10/11/1999 16:00 3.91 0.0835 1,813 18.73 66 7.78 6,481         134 76    
10/11/1999 17:00       19.11 66 7.79 6,519         132 75    
10/11/1999 18:00       18.97 66 7.78 6,192         128 72    
10/11/1999 19:00       18.63 66 7.74 5,863         130 68    
10/11/1999 20:00 5.06 0.0926 1,583 18.49 65 7.72 5,732         130 67    
10/11/1999 21:00       18.28 65 7.71 5,666         129 66    
10/11/1999 22:00       18.01 64 7.68 5,572         129 65    
10/11/1999 23:00       17.66 64 7.67 5,557         126 63    
10/12/1999 00:00 6.05 0.0882 1,598 17.23 63 7.66 5,593         126 62    
10/12/1999 01:00       16.90 62 7.63 5,629         129 64    
10/12/1999 02:00       16.65 62 7.64 5,639         131 65    
10/12/1999 03:00       16.42 62 7.64 5,720         131 65    
10/12/1999 04:00 7.72 0.0959 1,608 16.30 61 7.62 5,767         131 65    
10/12/1999 05:00       16.28 61 7.62 5,738         129 66    
10/12/1999 06:00       16.16 61 7.60 5,705         126 65    
10/12/1999 07:00       16.02 61 7.58 5,635         122 65    
10/12/1999 08:00 9.96 0.1050 1,593 15.92 61 7.56 5,560         116 67    
10/12/1999 09:00       15.94 61 7.55 5,509         111 69    
10/12/1999 10:00       16.19 61 7.60 5,852 16.40 7.68 5,870 6.28 114 72    
10/12/1999 11:00       16.56 62 7.63 5,951         114 77    
10/12/1999 12:00 8.19 0.1194 1,708 17.22 63 7.66 6,065         117 81    
10/12/1999 13:00       18.05 64 7.70 6,190         126 84    
10/12/1999 14:00       18.78 66 7.74 6,378         135 86    
10/12/1999 15:00       19.29 67 7.75 6,575         135 89    
10/12/1999 16:00 5.20 0.1240 1,853 19.97 68 7.79 6,615         133 87    
10/12/1999 17:00       20.32 69 7.81 6,562         131 85    
10/12/1999 18:00       20.16 68 7.77 6,296         127 77    
10/12/1999 19:00       19.71 67 7.70 5,921         124 69    
10/12/1999 20:00 7.12 0.1329 1,593 19.39 67 7.70 5,723         128 65    
10/12/1999 21:00       19.14 66 7.70 5,696         125 66    
10/12/1999 22:00       18.83 66 7.68 5,776         123 65    
10/12/1999 23:00       18.45 65 7.68 5,866         122 63    
10/13/1999 00:00 6.57 0.1065 1,593 18.06 65 7.68 5,910         124 60    
10/13/1999 01:00       17.68 64 7.67 5,946         125 56    
10/13/1999 02:00       17.24 63 7.66 5,909         125 54    
10/13/1999 03:00       16.75 62 7.64 5,939         130 51    
10/13/1999 04:00 7.48 0.0927 1,708 16.26 61 7.62 5,976         125 49    
10/13/1999 05:00       15.71 60 7.61 5,958         118 48    
10/13/1999 06:00       15.18 59 7.58 5,926         119 47    
10/13/1999 07:00       14.64 58 7.55 5,942         111 46    
10/13/1999 08:00 8.11 0.0677 1,728 14.02 57 7.52 6,018         107 47    
10/13/1999 09:00       13.62 57 7.49 5,953         108 50    
10/13/1999 10:00       13.27 56 7.44 6,002 13.50 7.68 5,780 6.22 110 52    
10/13/1999 11:00       13.32 56 7.52 6,071         110 54    
10/13/1999 12:00 7.28 0.0659 1,723 13.89 57 7.56 6,063         109 57    
10/13/1999 13:00       15.00 59 7.61 6,008         123 58    
10/13/1999 14:00       16.09 61 7.67 6,161         132 59    
10/13/1999 15:00       16.93 62 7.71 6,372         132 60    
10/13/1999 16:00 5.02 0.0918 1,883 17.54 64 7.75 6,560         129 60    
10/13/1999 17:00       17.74 64 7.77 6,594         124 59    
10/13/1999 18:00       17.41 63 7.72 6,362         122 56    
10/13/1999 19:00       16.94 62 7.69 5,935         120 51    
10/13/1999 20:00 6.65 0.0979 1,578 16.73 62 7.68 5,630         121 46    
10/13/1999 21:00       16.48 62 7.66 5,628         121 42    
10/13/1999 22:00       16.05 61 7.61 5,661         121 43    
10/13/1999 23:00       15.51 60 7.58 5,745         124 41    
10/14/1999 00:00 5.77 0.0568 1,648 15.01 59 7.56 5,808         124 39    
10/14/1999 01:00       14.52 58 7.56 5,794         123 39    
10/14/1999 02:00       14.15 57 7.54 5,751         123 42    
10/14/1999 03:00       13.82 57 7.52 5,770         124 46    
10/14/1999 04:00 5.42 0.0424 1,643 13.45 56 7.51 5,824         125 45    
10/14/1999 05:00       13.14 56 7.47 5,779         116 47    
10/14/1999 06:00       12.90 55 7.47 5,700         117 48    
10/14/1999 07:00       12.63 55 7.42 5,665         108 47    
10/14/1999 08:00 5.66 0.0316 1,623 12.32 54 7.40 5,723         106 50    
10/14/1999 09:00       12.08 54 7.40 5,756         103 54    
10/14/1999 10:00       11.99 54 7.34 5,959 12.20 7.72 5,720 6.32 107 58    
10/14/1999 11:00       12.29 54 7.43 6,026         109 63    
10/14/1999 12:00 5.24 0.0333 1,743 13.13 56 7.43 6,086         114 67    
10/14/1999 13:00       14.47 58 7.53 6,051         117 71    
10/14/1999 14:00       15.87 61 7.62 6,121         121 73    
10/14/1999 15:00       16.92 62 7.68 6,352         127 75    
10/14/1999 16:00 4.00 0.0687 1,932 17.62 64 7.72 6,544         130 76    
10/14/1999 17:00       18.01 64 7.72 6,508         123 75    
10/14/1999 18:00       17.91 64 7.73 6,256         123 72    
10/14/1999 19:00       17.69 64 7.69 5,850         119 66    
10/14/1999 20:00 5.21 0.0766 1,563 17.64 64 7.65 5,611         122 62    
10/14/1999 21:00       17.46 63 7.62 5,561         118 60    
10/14/1999 22:00       17.15 63 7.76 5,592         120 59    
10/14/1999 23:00       16.82 62 7.76 5,698         120 59    
10/15/1999 00:00 5.51 0.0977 1,698 16.49 62 7.77 5,775         120 57    
10/15/1999 01:00       16.12 61 7.78 5,802         126 66    
10/15/1999 02:00       15.79 60 7.80 5,793         124 68    
10/15/1999 03:00       15.61 60 7.81 5,841         131 70    
10/15/1999 04:00 6.80 0.1256 1,643 15.52 60 7.82 5,849         125 70    
10/15/1999 05:00       15.44 60 7.82 5,781         118 68    
10/15/1999 06:00       15.31 60 7.81 5,777         114 67    
10/15/1999 07:00       15.04 59 7.81 5,895         114 66    
10/15/1999 08:00 7.79 0.1281 1,748 14.87 59 7.79 5,895         108 67    
10/15/1999 09:00       14.78 59 7.79 5,905         113 68    
10/15/1999 10:00       14.80 59 7.82 5,939 15.00 7.72 5,450 6.14 111 71    
10/15/1999 11:00       15.01 59 7.83 6,107         110 71    
10/15/1999 12:00 7.10 0.1370 1,728 15.81 60 7.83 6,032         114 68    
10/15/1999 13:00       16.83 62 7.88 6,090         119 69    
10/15/1999 14:00       17.85 64 7.89 6,210         128 71    
10/15/1999 15:00       18.73 66 7.92 6,421         130 71    
10/15/1999 16:00 4.82 0.1535 1,898 19.32 67 7.94 6,539         127 71    
10/15/1999 17:00       19.49 67 7.94 6,494         130 70    
10/15/1999 18:00       19.16 66 7.94 6,300         127 66    
10/15/1999 19:00       18.68 66 7.89 5,908         123 63    
10/15/1999 20:00 6.44 0.1641 1,603 18.37 65 7.87 5,695         120 62    
10/15/1999 21:00       18.03 64 7.85 5,668         120 58    
10/15/1999 22:00       17.39 63 7.83 5,688         116 56    
10/15/1999 23:00       16.77 62 7.86 5,700         118 55    
10/16/1999 00:00 6.57 0.1305 1,518 16.19 61 7.83 5,721         122 54    
10/16/1999 01:00       15.71 60 7.84 5,791         125 53    
10/16/1999 02:00       15.25 59 7.85 5,772         123 52    
10/16/1999 03:00       14.81 59 7.86 5,808         123 51    
10/16/1999 04:00 7.12 0.1322 1,658 14.37 58 7.86 5,818         118 50    
10/16/1999 05:00       13.96 57 7.85 5,757         116 49    
10/16/1999 06:00       13.61 56 7.85 5,657         114 48    
10/16/1999 07:00       13.09 56 7.83 5,716         110 47    
10/16/1999 08:00 8.01 0.1228 1,633 12.73 55 7.83 5,733 12.80 7.89 5,790 6.66 106 51   HydroLab Data Download
10/16/1999 09:00       12.54 55 7.86 5,865         109 54    
10/16/1999 10:00       12.27 54 7.85 5,931         107 56    
10/16/1999 11:00       12.28 54 7.85 6,011         107 58    
10/16/1999 12:00 6.70 0.1121 1,649 12.69 55 7.87 6,040         107 59    
10/16/1999 13:00       13.47 56 7.88 6,068         112 59    
10/16/1999 14:00       14.54 58 7.91 6,133         117 60    
10/16/1999 15:00       15.43 60 7.93 6,100         122 60    
10/16/1999 16:00 5.20 0.1385 1,744 15.92 61 7.97 6,159         130 58    
10/16/1999 17:00       15.80 60 7.99 6,255         130 56    
10/16/1999 18:00       15.33 60 7.96 6,250         130 54    
10/16/1999 19:00       14.86 59 7.93 6,155         127 53    
10/16/1999 20:00 5.53 0.1159 1,629 14.49 58 7.91 5,957         129 51    
10/16/1999 21:00       14.17 58 7.90 5,705         129 48    
10/16/1999 22:00       13.83 57 7.88 5,430         124 47    
10/16/1999 23:00       13.48 56 7.86 5,324         126 46    
10/17/1999 00:00 6.65 0.1121 1,435 13.09 56 7.86 5,297         126 45    
10/17/1999 01:00       12.79 55 7.86 5,318         124 45    
10/17/1999 02:00       12.51 55 7.87 5,422         124 46    
10/17/1999 03:00       12.25 54 7.88 5,498         121 45    
10/17/1999 04:00 6.49 0.1009 1,515 12.02 54 7.86 5,541         119 44    
10/17/1999 05:00       11.82 53 7.84 5,503         117 42    
10/17/1999 06:00       11.59 53 7.83 5,516         110 39    
10/17/1999 07:00       11.22 52 7.82 5,578         107 36    
10/17/1999 08:00 5.87 0.0742 1,575 10.78 51 7.81 5,605         104 37    
10/17/1999 09:00       10.27 50 7.79 5,752 10.30 7.74 5,770 6.98 100 42    
10/17/1999 10:00       10.00 50 7.81 5,899         103 47    
10/17/1999 11:00       10.13 50 7.81 5,942         107 50    
10/17/1999 12:00 4.64 0.0612 1,639 10.74 51 7.83 5,987         112 51    
10/17/1999 13:00       11.74 53 7.85 5,990         117 53    
10/17/1999 14:00       12.96 55 7.87 6,021         120 54    
10/17/1999 15:00       13.84 57 7.89 6,156         123 55    
10/17/1999 16:00 3.82 0.0809 1,690 14.63 58 7.91 6,187         132 55    
10/17/1999 17:00       15.05 59 7.94 6,136         130 54    
10/17/1999 18:00       14.82 59 7.94 6,165         130 51    
10/17/1999 19:00       14.26 58 7.91 6,031         130 44    
10/17/1999 20:00 3.77 0.0707 1,532 13.92 57 7.88 5,676         126 37    
10/17/1999 21:00       13.62 57 7.87 5,310         124 37    
10/17/1999 22:00       13.31 56 7.84 5,074         126 36    
10/17/1999 23:00       12.90 55 7.83 5,044         125 36    
10/18/1999 00:00 5.36 0.0786 1,369 12.45 54 7.82 5,081         123 35    
10/18/1999 01:00       12.01 54 7.82 5,145         125 35    
10/18/1999 02:00       11.64 53 7.81 5,249         123 39    
10/18/1999 03:00       11.25 52 7.81 5,319         128 40    
10/18/1999 04:00 5.80 0.0741   10.93 52 7.81 5,419         126 40    
10/18/1999 05:00       10.70 51 7.80 5,467         121 41    
10/18/1999 06:00       10.52 51 7.80 5,464         117 41    
10/18/1999 07:00       10.34 51 7.78 5,432         112 41    
10/18/1999 08:00 5.25 0.0576 1,517 9.85 50 7.78 5,603         108 43    
10/18/1999 09:00       9.71 49 7.77 5,622         111 45    
10/18/1999 10:00       9.77 50 7.81 5,608 9.90 7.79 5,230 7.60 113 47    
10/18/1999 11:00       9.93 50 7.80 5,669         114 50    
10/18/1999 12:00 5.18 0.0629 1,506 10.59 51 7.80 5,650         117 53    
10/18/1999 13:00       11.40 53 7.81 5,751         126 58    
10/18/1999 14:00       12.35 54 7.82 5,883         134 60    
10/18/1999 15:00       12.81 55 7.86 6,018         133 60    
10/18/1999 16:00 3.82 0.0686 1,694 13.63 57 7.87 6,074         134 58    
10/18/1999 17:00       13.77 57 7.86 6,115         129 57    
10/18/1999 18:00       13.69 57 7.85 5,934         130 54    
10/18/1999 19:00       13.55 56 7.82 5,588         125 48    
10/18/1999 20:00 5.01 0.0741 1,414 13.46 56 7.79 5,278         125 41    
10/18/1999 21:00       13.26 56 7.78 5,195         125 37    
10/18/1999 22:00       12.89 55 7.77 5,258         124 36    
10/18/1999 23:00       12.53 55 7.76 5,267         124 34    
10/19/1999 00:00 5.47 0.0681 1,419 12.08 54 7.76 5,323         124 32    
10/19/1999 01:00       11.75 53 7.76 5,373         129 34    
10/19/1999 02:00       11.45 53 7.76 5,384         126 37    
10/19/1999 03:00       11.19 52 7.75 5,442         131 40    
10/19/1999 04:00 7.14 0.0836 1,493 11.00 52 7.77 5,501         131 40    
10/19/1999 05:00       10.78 51 7.76 5,487         120 39    
10/19/1999 06:00       10.59 51 7.76 5,429         118 40    
10/19/1999 07:00       10.38 51 7.75 5,343         112 39    
10/19/1999 08:00 8.99 0.0913 1,449 10.02 50 7.74 5,406         111 41    
10/19/1999 09:00       9.69 49 7.73 5,481         113 45    
10/19/1999 10:00       9.60 49 7.75 5,615 9.70 7.64 5,670 7.07 109 47    
10/19/1999 11:00       9.75 50 7.77 5,674         109 49    
10/19/1999 12:00 8.29 0.0983 1,595 10.55 51 7.79 5,673         114 50    
10/19/1999 13:00       11.29 52 7.82 5,739         125 51    
10/19/1999 14:00       12.16 54 7.86 5,796         132 53    
10/19/1999 15:00       12.89 55 7.85 5,898         132 54    
10/19/1999 16:00 5.64 0.1054 1,699 13.54 56 7.89 6,060         133 54    
10/19/1999 17:00       13.83 57 7.91 6,043         131 53    
10/19/1999 18:00       13.46 56 7.90 5,851         133 48    
10/19/1999 19:00       13.02 55 7.86 5,527         129 42    
10/19/1999 20:00 7.36 0.1167 1,475 12.88 55 7.84 5,329         125 37    
10/19/1999 21:00       12.63 55 7.83 5,293         123 32    
10/19/1999 22:00       12.26 54 7.83 5,284         122 31    
10/19/1999 23:00       11.84 53 7.81 5,283         128 30    
10/20/1999 00:00 7.56 0.0980 1,510 11.41 53 7.80 5,303         125 29    
10/20/1999 01:00       11.05 52 7.80 5,347         125 27    
10/20/1999 02:00       10.68 51 7.80 5,409         126 27    
10/20/1999 03:00       10.35 51 7.80 5,419         131 26    
10/20/1999 04:00 7.80 0.0903 1,510 9.95 50 7.80 5,447         128 26    
10/20/1999 05:00       9.63 49 7.79 5,436         121 26    
10/20/1999 06:00       9.32 49 7.78 5,395         115 25    
10/20/1999 07:00       8.99 48 7.77 5,382         113 25    
10/20/1999 08:00       8.52 47 7.74 5,452         111 31    
10/20/1999 09:00       8.29 47 7.72 5,475         114 39    
10/20/1999 10:00       8.34 47 7.68 5,615 8.50 7.70 5,640 7.75 113 50    
10/20/1999 11:00       8.69 48 7.70 5,668         119 56    
10/20/1999 12:00 7.54 0.0681 1,521 9.69 49 7.70 5,684         122 60    
10/20/1999 13:00       11.03 52 7.73 5,748         132 63    
10/20/1999 14:00       12.20 54 7.79 5,795         137 67    
10/20/1999 15:00       13.03 55 7.78 5,952         140 69    
10/20/1999 16:00 5.22 0.0848 1,657 13.79 57 7.82 6,049         138 70    
10/20/1999 17:00       14.31 58 7.83 6,034         138 69    
10/20/1999 18:00       14.34 58 7.82 5,791         136 64    
10/20/1999 19:00       14.23 58 7.79 5,458         134 54    
10/20/1999 20:00 6.43 0.0963 1,411 14.22 58 7.77 5,303         129 46    
10/20/1999 21:00       14.12 57 7.76 5,247         131 43    
10/20/1999 22:00       13.85 57 7.78 5,257         129 43    
10/20/1999 23:00       13.47 56 7.78 5,280         130 42    
10/21/1999 00:00 5.64 0.0792 1,417 13.08 56 7.78 5,321         128 40    
10/21/1999 01:00       12.71 55 7.77 5,388         132 39    
10/21/1999 02:00       12.42 54 7.73 5,414         131 40    
10/21/1999 03:00       12.11 54 7.72 5,398         133 40    
10/21/1999 04:00 5.39 0.0614 1,461 11.81 53 7.73 5,438         131 45    
10/21/1999 05:00       11.55 53 7.72 5,442         125 46    
10/21/1999 06:00       11.28 52 7.70 5,384         116 45    
10/21/1999 07:00       10.96 52 7.70 5,415         118 45    
10/21/1999 08:00 5.25 0.0500 1,445 10.67 51 7.69 5,477 10.80 7.64 5,910 7.65 113 47   Final HydroLab Download.
Maximum 9.96 0.1709 1,932 23.11 74 7.99 6,681 22.90 7.89 6,100 7.75 238 89
Minimum 2.40 0.0238 820 8.29 47 7.26 2,707 8.50 7.54 3,540 2.61 100 25
Mean 5.65 0.0787 1,452 15.82 60 7.66 5,269 14.32 7.71 5,177 6.40 144 57
Std. Deviation 1.52 0.0322 270 3.13 5.6 0.13 872 3.43 0.07 771 1.05 30.7 13.4